createdAt,value
2022-09-04T00:00:12.474Z,12.94
2022-09-04T00:02:48.339Z,12.92
2022-09-04T00:05:24.008Z,12.88
2022-09-04T00:08:29.558Z,12.86
2022-09-04T00:11:29.377Z,12.88
2022-09-04T00:14:14.583Z,12.85
2022-09-04T00:16:51.086Z,12.82
2022-09-04T00:19:41.277Z,12.84
2022-09-04T00:22:52.551Z,12.80
2022-09-04T00:25:47.407Z,12.72
2022-09-04T00:28:37.044Z,12.76
2022-09-04T00:31:13.241Z,12.69
2022-09-04T00:33:54.855Z,12.68
2022-09-04T00:36:24.144Z,12.58
2022-09-04T00:39:03.227Z,12.55
2022-09-04T00:41:37.713Z,12.57
2022-09-04T00:44:32.324Z,12.49
2022-09-04T00:47:28.036Z,12.55
2022-09-04T00:50:07.700Z,12.50
2022-09-04T00:52:40.809Z,12.49
2022-09-04T00:55:29.326Z,12.46
2022-09-04T00:57:59.494Z,12.41
2022-09-04T01:00:28.021Z,12.36
2022-09-04T01:03:44.437Z,12.32
2022-09-04T01:06:29.510Z,12.27
2022-09-04T01:09:25.165Z,12.28
2022-09-04T01:12:26.548Z,12.24
2022-09-04T01:15:19.707Z,12.20
2022-09-04T01:18:08.090Z,12.17
2022-09-04T01:20:56.433Z,12.12
2022-09-04T01:23:41.172Z,12.08
2022-09-04T01:26:13.953Z,12.04
2022-09-04T01:28:53.059Z,11.92
2022-09-04T01:31:44.640Z,11.98
2022-09-04T01:34:28.180Z,11.96
2022-09-04T01:37:05.180Z,11.94
2022-09-04T01:39:35.833Z,11.90
2022-09-04T01:42:14.712Z,11.87
2022-09-04T01:44:42.602Z,11.77
2022-09-04T01:47:17.958Z,11.80
2022-09-04T01:49:57.532Z,11.78
2022-09-04T01:52:45.986Z,11.68
2022-09-04T01:55:32.811Z,11.76
2022-09-04T01:58:17.655Z,11.66
2022-09-04T02:01:03.646Z,11.75
2022-09-04T02:03:54.186Z,11.70
2022-09-04T02:06:22.184Z,11.67
2022-09-04T02:09:11.654Z,11.53
2022-09-04T02:11:48.988Z,11.55
2022-09-04T02:14:40.827Z,11.50
2022-09-04T02:17:47.700Z,11.45
2022-09-04T02:20:28.016Z,11.45
2022-09-04T02:23:00.025Z,11.43
2022-09-04T02:25:45.190Z,11.38
2022-09-04T02:28:27.196Z,11.34
2022-09-04T02:31:13.044Z,11.31
2022-09-04T02:33:49.458Z,11.26
2022-09-04T02:36:23.406Z,11.14
2022-09-04T02:39:02.719Z,11.20
2022-09-04T02:41:34.983Z,11.14
2022-09-04T02:44:27.461Z,11.11
2022-09-04T02:47:12.401Z,11.01
2022-09-04T02:49:58.297Z,10.98
2022-09-04T02:53:03.359Z,11.03
2022-09-04T02:55:55.193Z,10.98
2022-09-04T02:58:44.185Z,10.87
2022-09-04T03:01:23.324Z,10.92
2022-09-04T03:04:08.808Z,10.87
2022-09-04T03:06:48.828Z,10.90
2022-09-04T03:09:23.770Z,10.88
2022-09-04T03:12:06.345Z,10.76
2022-09-04T03:14:43.317Z,10.79
2022-09-04T03:17:23.690Z,10.77
2022-09-04T03:20:02.698Z,10.71
2022-09-04T03:22:40.850Z,10.74
2022-09-04T03:25:11.042Z,10.66
2022-09-04T03:27:38.134Z,10.70
2022-09-04T03:30:09.590Z,10.55
2022-09-04T03:32:58.527Z,10.61
2022-09-04T03:35:32.039Z,10.60
2022-09-04T03:38:33.009Z,10.59
2022-09-04T03:41:18.224Z,10.59
2022-09-04T03:44:00.866Z,10.63
2022-09-04T03:46:33.363Z,10.63
2022-09-04T03:49:19.144Z,10.66
2022-09-04T03:52:05.640Z,10.68
2022-09-04T03:54:51.062Z,10.68
2022-09-04T03:57:49.375Z,10.73
2022-09-04T04:00:21.671Z,10.72
2022-09-04T04:03:19.791Z,10.76
2022-09-04T04:06:16.044Z,10.70
2022-09-04T04:09:19.298Z,10.79
2022-09-04T04:12:03.832Z,10.80
2022-09-04T04:14:42.105Z,10.85
2022-09-04T04:17:27.758Z,10.87
2022-09-04T04:20:16.818Z,10.89
2022-09-04T04:23:17.855Z,10.95
2022-09-04T04:26:14.145Z,10.99
2022-09-04T04:29:26.785Z,11.03
2022-09-04T04:32:13.381Z,11.08
2022-09-04T04:35:18.104Z,11.14
2022-09-04T04:38:07.767Z,11.20
2022-09-04T04:40:45.347Z,11.25
2022-09-04T04:43:50.358Z,11.21
2022-09-04T04:46:35.324Z,11.32
2022-09-04T04:49:30.653Z,11.37
2022-09-04T04:52:28.779Z,11.42
2022-09-04T04:55:31.391Z,11.46
2022-09-04T04:58:01.136Z,11.49
2022-09-04T05:00:32.210Z,11.55
2022-09-04T05:03:35.418Z,11.57
2022-09-04T05:06:15.937Z,11.61
2022-09-04T05:08:49.402Z,11.69
2022-09-04T05:11:25.446Z,11.75
2022-09-04T05:14:06.843Z,11.79
2022-09-04T05:16:58.414Z,11.80
2022-09-04T05:19:29.511Z,11.89
2022-09-04T05:22:21.035Z,11.95
2022-09-04T05:25:00.234Z,12.01
2022-09-04T05:28:04.527Z,12.07
2022-09-04T05:30:47.698Z,12.12
2022-09-04T05:33:33.977Z,12.14
2022-09-04T05:36:21.182Z,12.19
2022-09-04T05:38:57.315Z,12.23
2022-09-04T05:41:29.855Z,12.25
2022-09-04T05:44:32.108Z,12.26
2022-09-04T05:47:20.784Z,12.32
2022-09-04T05:49:50.925Z,12.36
2022-09-04T05:52:29.987Z,12.37
2022-09-04T05:55:32.169Z,12.41
2022-09-04T05:58:25.976Z,12.45
2022-09-04T06:01:08.415Z,12.49
2022-09-04T06:03:47.456Z,12.47
2022-09-04T06:06:22.872Z,12.59
2022-09-04T06:09:02.058Z,12.64
2022-09-04T06:11:48.580Z,12.72
2022-09-04T06:14:24.484Z,12.79
2022-09-04T06:17:25.716Z,12.81
2022-09-04T06:20:10.274Z,12.94
2022-09-04T06:23:02.963Z,13.01
2022-09-04T06:25:39.312Z,12.98
2022-09-04T06:28:09.405Z,13.17
2022-09-04T06:31:29.459Z,13.25
2022-09-04T06:34:22.411Z,13.34
2022-09-04T06:37:03.079Z,13.43
2022-09-04T06:39:48.645Z,13.43
2022-09-04T06:42:41.157Z,13.55
2022-09-04T06:45:23.770Z,13.57
2022-09-04T06:48:22.556Z,13.54
2022-09-04T06:51:15.899Z,13.71
2022-09-04T06:53:50.633Z,13.76
2022-09-04T06:56:37.522Z,13.80
2022-09-04T06:59:24.467Z,13.85
2022-09-04T07:02:29.097Z,13.91
2022-09-04T07:05:10.010Z,13.96
2022-09-04T07:07:59.926Z,14.02
2022-09-04T07:10:34.509Z,14.09
2022-09-04T07:13:23.596Z,14.13
2022-09-04T07:15:57.027Z,14.16
2022-09-04T07:18:52.005Z,14.23
2022-09-04T07:21:31.024Z,14.30
2022-09-04T07:24:03.704Z,14.40
2022-09-04T07:26:42.718Z,14.44
2022-09-04T07:29:30.905Z,14.43
2022-09-04T07:32:15.543Z,14.59
2022-09-04T07:35:00.862Z,14.63
2022-09-04T07:37:47.178Z,14.64
2022-09-04T07:40:23.180Z,14.71
2022-09-04T07:43:08.154Z,14.74
2022-09-04T07:45:39.228Z,14.79
2022-09-04T07:48:17.734Z,14.84
2022-09-04T07:51:04.683Z,14.89
2022-09-04T07:53:56.622Z,14.98
2022-09-04T07:56:35.436Z,15.01
2022-09-04T07:59:36.120Z,15.19
2022-09-04T08:02:19.266Z,15.32
2022-09-04T08:05:27.242Z,15.41
2022-09-04T08:08:12.046Z,15.51
2022-09-04T08:11:10.039Z,15.59
2022-09-04T08:14:10.053Z,15.70
2022-09-04T08:17:24.493Z,15.81
2022-09-04T08:20:02.321Z,15.86
2022-09-04T08:22:40.224Z,15.90
2022-09-04T08:25:20.351Z,16.01
2022-09-04T08:28:17.660Z,16.06
2022-09-04T08:30:56.540Z,16.09
2022-09-04T08:33:23.503Z,16.13
2022-09-04T08:36:03.147Z,16.18
2022-09-04T08:38:42.425Z,16.16
2022-09-04T08:41:31.043Z,16.26
2022-09-04T08:44:27.009Z,16.33
2022-09-04T08:47:12.617Z,16.36
2022-09-04T08:50:07.801Z,16.37
2022-09-04T08:53:04.037Z,16.37
2022-09-04T08:55:43.215Z,16.38
2022-09-04T08:58:34.711Z,16.43
2022-09-04T09:01:18.966Z,16.50
2022-09-04T09:03:48.735Z,16.59
2022-09-04T09:06:28.037Z,16.63
2022-09-04T09:09:27.790Z,16.67
2022-09-04T09:12:26.262Z,16.65
2022-09-04T09:15:07.519Z,16.69
2022-09-04T09:17:39.986Z,16.61
2022-09-04T09:20:29.780Z,16.57
2022-09-04T09:23:26.250Z,16.53
2022-09-04T09:26:13.834Z,16.52
2022-09-04T09:29:02.138Z,16.47
2022-09-04T09:31:43.046Z,16.48
2022-09-04T09:34:25.737Z,16.47
2022-09-04T09:37:02.594Z,16.48
2022-09-04T09:39:42.963Z,16.55
2022-09-04T09:42:40.739Z,16.58
2022-09-04T09:45:13.812Z,16.63
2022-09-04T09:48:10.972Z,16.68
2022-09-04T09:51:06.296Z,16.76
2022-09-04T09:53:46.886Z,16.88
2022-09-04T09:56:36.046Z,16.93
2022-09-04T09:59:41.383Z,16.92
2022-09-04T10:02:17.746Z,16.96
2022-09-04T10:05:13.701Z,17.06
2022-09-04T10:07:43.433Z,17.20
2022-09-04T10:10:32.688Z,17.19
2022-09-04T10:13:15.229Z,17.24
2022-09-04T10:16:12.819Z,17.23
2022-09-04T10:19:04.765Z,17.14
2022-09-04T10:21:50.340Z,17.05
2022-09-04T10:24:55.601Z,17.00
2022-09-04T10:27:29.326Z,16.94
2022-09-04T10:30:14.209Z,16.90
2022-09-04T10:33:11.518Z,16.92
2022-09-04T10:35:58.253Z,17.01
2022-09-04T10:38:28.003Z,17.21
2022-09-04T10:41:19.747Z,17.34
2022-09-04T10:43:52.823Z,17.49
2022-09-04T10:46:29.937Z,17.56
2022-09-04T10:49:28.144Z,17.59
2022-09-04T10:52:06.996Z,17.66
2022-09-04T10:54:58.244Z,17.66
2022-09-04T10:57:43.216Z,17.57
2022-09-04T11:00:17.876Z,17.61
2022-09-04T11:03:21.257Z,17.65
2022-09-04T11:06:26.338Z,17.68
2022-09-04T11:09:06.011Z,17.72
2022-09-04T11:12:06.423Z,17.69
2022-09-04T11:14:55.167Z,17.63
2022-09-04T11:17:30.494Z,17.59
2022-09-04T11:20:30.114Z,17.57
2022-09-04T11:23:15.513Z,17.63
2022-09-04T11:26:24.017Z,17.65
2022-09-04T11:29:17.093Z,17.64
2022-09-04T11:32:11.979Z,17.65
2022-09-04T11:35:13.717Z,17.65
2022-09-04T11:37:59.906Z,17.69
2022-09-04T11:40:37.930Z,17.73
2022-09-04T11:43:10.764Z,17.71
2022-09-04T11:45:51.483Z,17.76
2022-09-04T11:48:41.149Z,17.77
2022-09-04T11:51:23.309Z,17.79
2022-09-04T11:54:02.147Z,17.73
2022-09-04T11:57:04.507Z,17.76
2022-09-04T12:00:01.646Z,17.80
2022-09-04T12:02:50.808Z,17.84
2022-09-04T12:05:45.668Z,17.95
2022-09-04T12:08:57.019Z,17.99
2022-09-04T12:11:39.237Z,17.90
2022-09-04T12:14:30.688Z,17.97
2022-09-04T12:17:08.491Z,17.97
2022-09-04T12:19:56.163Z,18.03
2022-09-04T12:22:44.435Z,18.01
2022-09-04T12:25:38.657Z,18.15
2022-09-04T12:28:24.138Z,18.18
2022-09-04T12:31:07.878Z,18.17
2022-09-04T12:33:47.120Z,18.18
2022-09-04T12:36:38.316Z,18.22
2022-09-04T12:39:26.200Z,18.22
2022-09-04T12:42:11.375Z,18.28
2022-09-04T12:44:47.276Z,18.30
2022-09-04T12:47:45.941Z,18.31
2022-09-04T12:50:28.196Z,18.27
2022-09-04T12:52:55.035Z,18.36
2022-09-04T12:55:58.801Z,18.40
2022-09-04T12:58:37.671Z,18.53
2022-09-04T13:01:20.357Z,18.63
2022-09-04T13:03:51.215Z,18.67
2022-09-04T13:06:35.050Z,18.63
2022-09-04T13:09:23.801Z,18.67
2022-09-04T13:11:56.199Z,18.67
2022-09-04T13:14:47.249Z,18.71
2022-09-04T13:17:14.264Z,18.69
2022-09-04T13:19:47.636Z,18.75
2022-09-04T13:22:32.167Z,18.68
2022-09-04T13:25:04.885Z,18.65
2022-09-04T13:27:43.535Z,18.62
2022-09-04T13:30:25.494Z,18.60
2022-09-04T13:33:19.784Z,18.53
2022-09-04T13:36:00.903Z,18.55
2022-09-04T13:38:50.659Z,18.58
2022-09-04T13:41:30.156Z,18.61
2022-09-04T13:44:07.307Z,18.63
2022-09-04T13:46:49.275Z,18.76
2022-09-04T13:49:25.099Z,18.77
2022-09-04T13:51:59.511Z,18.78
2022-09-04T13:54:34.044Z,18.72
2022-09-04T13:57:00.712Z,18.66
2022-09-04T13:59:28.687Z,18.66
2022-09-04T14:02:00.001Z,18.52
2022-09-04T14:04:34.345Z,18.57
2022-09-04T14:07:07.989Z,18.59
2022-09-04T14:09:42.885Z,18.55
2022-09-04T14:12:42.868Z,18.52
2022-09-04T14:15:27.107Z,18.46
2022-09-04T14:18:04.411Z,18.49
2022-09-04T14:20:42.381Z,18.42
2022-09-04T14:23:56.225Z,18.36
2022-09-04T14:26:55.586Z,18.25
2022-09-04T14:29:41.768Z,18.18
2022-09-04T14:32:12.861Z,18.08
2022-09-04T14:34:50.924Z,18.00
2022-09-04T14:37:30.230Z,17.98
2022-09-04T14:40:25.752Z,17.99
2022-09-04T14:43:28.473Z,17.96
2022-09-04T14:46:09.721Z,17.97
2022-09-04T14:48:41.952Z,17.97
2022-09-04T14:51:37.598Z,17.96
2022-09-04T14:54:06.665Z,17.83
2022-09-04T14:56:49.524Z,17.93
2022-09-04T14:59:24.587Z,17.92
2022-09-04T15:02:10.504Z,17.91
2022-09-04T15:05:01.440Z,17.92
2022-09-04T15:07:42.141Z,17.90
2022-09-04T15:10:28.735Z,17.86
2022-09-04T15:13:24.062Z,17.86
2022-09-04T15:16:02.403Z,17.86
2022-09-04T15:18:43.146Z,17.85
2022-09-04T15:21:21.242Z,17.85
2022-09-04T15:24:16.336Z,17.81
2022-09-04T15:27:05.752Z,17.83
2022-09-04T15:29:51.419Z,17.80
2022-09-04T15:32:26.111Z,17.81
2022-09-04T15:35:14.101Z,17.80
2022-09-04T15:37:48.310Z,17.76
2022-09-04T15:40:29.053Z,17.76
2022-09-04T15:43:04.454Z,17.76
2022-09-04T15:45:53.165Z,17.74
2022-09-04T15:48:33.973Z,17.71
2022-09-04T15:51:19.621Z,17.65
2022-09-04T15:54:15.424Z,17.67
2022-09-04T15:56:51.105Z,17.65
2022-09-04T15:59:44.248Z,17.51
2022-09-04T16:02:37.260Z,17.60
2022-09-04T16:05:25.133Z,17.57
2022-09-04T16:08:03.076Z,17.44
2022-09-04T16:10:42.766Z,17.46
2022-09-04T16:13:34.745Z,17.44
2022-09-04T16:16:27.926Z,17.42
2022-09-04T16:19:12.157Z,17.35
2022-09-04T16:22:10.746Z,17.37
2022-09-04T16:24:54.112Z,17.34
2022-09-04T16:27:25.911Z,17.31
2022-09-04T16:30:03.014Z,17.27
2022-09-04T16:32:34.259Z,17.26
2022-09-04T16:35:21.539Z,17.20
2022-09-04T16:38:02.045Z,17.13
2022-09-04T16:40:48.605Z,17.06
2022-09-04T16:43:23.439Z,17.02
2022-09-04T16:46:07.057Z,16.94
2022-09-04T16:48:59.207Z,16.86
2022-09-04T16:51:39.858Z,16.78
2022-09-04T16:54:24.753Z,16.75
2022-09-04T16:57:13.237Z,16.61
2022-09-04T16:59:42.629Z,16.62
2022-09-04T17:02:37.668Z,16.55
2022-09-04T17:05:23.171Z,16.51
2022-09-04T17:08:05.767Z,16.38
2022-09-04T17:10:54.671Z,16.40
2022-09-04T17:14:13.695Z,16.37
2022-09-04T17:17:29.821Z,16.32
2022-09-04T17:20:04.249Z,16.26
2022-09-04T17:22:50.215Z,16.22
2022-09-04T17:29:19.623Z,16.19
2022-09-04T17:31:58.630Z,16.10
2022-09-04T17:40:47.148Z,16.00
2022-09-04T17:40:51.459Z,16.03
2022-09-04T17:41:38.244Z,15.94
2022-09-04T17:44:02.369Z,15.95
2022-09-04T17:46:37.267Z,15.90
2022-09-04T17:49:20.447Z,15.83
2022-09-04T17:51:57.604Z,15.72
2022-09-04T17:54:28.947Z,15.73
2022-09-04T17:57:04.413Z,15.68
2022-09-04T17:59:47.720Z,15.64
2022-09-04T18:02:33.479Z,15.60
2022-09-04T18:05:19.963Z,15.55
2022-09-04T18:08:09.357Z,15.51
2022-09-04T18:10:57.703Z,15.48
2022-09-04T18:13:37.840Z,15.41
2022-09-04T18:17:11.118Z,15.39
2022-09-04T18:19:47.941Z,15.36
2022-09-04T18:22:33.394Z,15.31
2022-09-04T18:25:19.805Z,15.28
2022-09-04T18:28:15.374Z,15.24
2022-09-04T18:37:09.935Z,15.22
2022-09-04T18:37:23.201Z,15.20
2022-09-04T18:37:44.104Z,15.17
2022-09-04T18:40:08.835Z,15.14
2022-09-04T18:50:30.250Z,15.10
2022-09-04T18:50:42.919Z,15.05
2022-09-04T18:50:49.496Z,15.08
2022-09-04T18:51:30.543Z,15.01
2022-09-04T18:54:19.691Z,14.98
2022-09-04T18:56:53.051Z,14.96
2022-09-04T18:59:26.437Z,14.91
2022-09-04T19:02:18.296Z,14.87
2022-09-04T19:04:51.869Z,14.84
2022-09-04T19:07:50.446Z,14.80
2022-09-04T19:10:23.844Z,14.79
2022-09-04T19:12:50.994Z,14.78
2022-09-04T19:15:36.153Z,14.73
2022-09-04T19:18:17.283Z,14.71
2022-09-04T19:20:52.884Z,14.63
2022-09-04T19:23:29.796Z,14.67
2022-09-04T19:26:00.819Z,14.65
2022-09-04T19:28:43.883Z,14.63
2022-09-04T19:31:30.061Z,14.57
2022-09-04T19:34:38.635Z,14.64
2022-09-04T19:37:44.786Z,14.65
2022-09-04T19:46:03.557Z,14.63
2022-09-04T19:46:18.486Z,14.62
2022-09-04T19:46:50.933Z,14.61
2022-09-04T19:50:03.531Z,14.59
2022-09-04T19:53:33.023Z,14.58
2022-09-04T19:55:23.564Z,14.58
2022-09-04T19:58:06.367Z,14.59
2022-09-04T20:00:43.452Z,14.62
2022-09-04T20:03:29.316Z,14.62
2022-09-04T20:06:21.499Z,14.63
2022-09-04T20:09:08.346Z,14.62
2022-09-04T20:11:43.367Z,14.67
2022-09-04T20:14:19.693Z,14.66
2022-09-04T20:16:52.654Z,14.67
2022-09-04T20:19:37.577Z,14.68
2022-09-04T20:22:25.536Z,14.70
2022-09-04T20:25:08.483Z,14.71
2022-09-04T20:27:43.565Z,14.71
2022-09-04T20:30:25.167Z,14.71
2022-09-04T20:33:12.391Z,14.73
2022-09-04T20:35:55.369Z,14.75
2022-09-04T20:38:30.675Z,14.76
2022-09-04T20:41:08.319Z,14.76
2022-09-04T20:43:54.367Z,14.69
2022-09-04T20:52:41.756Z,14.79
2022-09-04T20:52:53.857Z,14.77
2022-09-04T20:53:07.771Z,14.78
2022-09-04T20:55:31.534Z,14.79
2022-09-04T21:01:51.188Z,14.79
2022-09-04T21:03:21.230Z,14.80
2022-09-04T21:04:42.159Z,14.82
2022-09-04T21:07:17.941Z,14.83
2022-09-04T21:10:10.007Z,14.78
2022-09-04T21:12:48.544Z,14.88
2022-09-04T21:15:38.525Z,14.89
2022-09-04T21:18:18.056Z,14.89
2022-09-04T21:20:59.903Z,14.91
2022-09-04T21:23:53.032Z,14.88
2022-09-04T21:26:40.827Z,14.92
2022-09-04T21:29:21.720Z,14.84
2022-09-04T21:32:00.231Z,14.95
2022-09-04T21:34:51.936Z,14.94
2022-09-04T21:37:31.472Z,14.97
2022-09-04T21:40:50.319Z,14.97
2022-09-04T21:43:35.708Z,14.95
2022-09-04T21:46:13.234Z,14.92
2022-09-04T21:49:02.696Z,14.89
2022-09-04T21:52:03.855Z,14.88
2022-09-04T21:54:38.247Z,14.87
2022-09-04T22:02:29.530Z,14.84
2022-09-04T22:02:35.290Z,14.75
2022-09-04T22:03:29.438Z,14.69
2022-09-04T22:11:24.772Z,14.68
2022-09-04T22:13:41.887Z,14.75
2022-09-04T22:13:48.427Z,14.65
2022-09-04T22:16:44.339Z,14.72
2022-09-04T22:19:34.905Z,14.73
2022-09-04T22:22:14.191Z,14.72
2022-09-04T22:25:24.075Z,14.72
2022-09-04T22:28:18.620Z,14.73
2022-09-04T22:31:31.470Z,14.72
2022-09-04T22:34:17.414Z,14.72
2022-09-04T22:37:00.967Z,14.73
2022-09-04T22:40:07.823Z,14.72
2022-09-04T22:42:43.627Z,14.73
2022-09-04T22:45:22.837Z,14.72
2022-09-04T22:48:03.299Z,14.70
2022-09-04T22:50:49.399Z,14.68
2022-09-04T22:53:31.362Z,14.68
2022-09-04T22:56:22.870Z,14.68
2022-09-04T22:59:10.522Z,14.65
2022-09-04T23:02:14.316Z,14.57
2022-09-04T23:05:12.420Z,14.56
2022-09-04T23:13:44.484Z,14.62
2022-09-04T23:13:57.109Z,14.60
2022-09-04T23:14:06.851Z,14.54
2022-09-04T23:16:53.646Z,14.54
2022-09-04T23:24:47.887Z,14.51
2022-09-04T23:26:43.054Z,14.54
2022-09-04T23:26:49.026Z,14.53
2022-09-04T23:29:09.653Z,14.56
2022-09-04T23:31:46.640Z,14.55
2022-09-04T23:34:30.028Z,14.57
2022-09-04T23:37:21.678Z,14.59
2022-09-04T23:40:16.657Z,14.60
2022-09-04T23:43:07.748Z,14.61
2022-09-04T23:46:01.981Z,14.53
2022-09-04T23:49:06.820Z,14.60
2022-09-04T23:51:57.930Z,14.60
2022-09-04T23:54:37.274Z,14.56
2022-09-04T23:57:26.728Z,14.56
